sensor_id;sensor_type;location;lat;lon;timestamp;temperature;humidity
22383;DHT22;11359;45.802;13.530;2023-04-01T00:00:57;14.70;61.90
22383;DHT22;11359;45.802;13.530;2023-04-01T00:03:23;14.70;61.90
22383;DHT22;11359;45.802;13.530;2023-04-01T00:05:50;14.70;61.90
22383;DHT22;11359;45.802;13.530;2023-04-01T00:08:22;14.60;61.70
22383;DHT22;11359;45.802;13.530;2023-04-01T00:10:47;14.60;61.70
22383;DHT22;11359;45.802;13.530;2023-04-01T00:13:13;14.60;61.50
22383;DHT22;11359;45.802;13.530;2023-04-01T00:15:40;14.60;61.50
22383;DHT22;11359;45.802;13.530;2023-04-01T00:18:06;14.60;61.50
22383;DHT22;11359;45.802;13.530;2023-04-01T00:20:32;14.60;61.50
22383;DHT22;11359;45.802;13.530;2023-04-01T00:22:58;14.60;61.40
22383;DHT22;11359;45.802;13.530;2023-04-01T00:25:24;14.50;61.40
22383;DHT22;11359;45.802;13.530;2023-04-01T00:27:50;14.50;61.40
22383;DHT22;11359;45.802;13.530;2023-04-01T00:30:18;14.50;61.40
22383;DHT22;11359;45.802;13.530;2023-04-01T00:32:44;14.50;61.50
22383;DHT22;11359;45.802;13.530;2023-04-01T00:35:13;14.50;61.50
22383;DHT22;11359;45.802;13.530;2023-04-01T00:37:39;14.50;61.50
22383;DHT22;11359;45.802;13.530;2023-04-01T00:40:07;14.50;61.50
22383;DHT22;11359;45.802;13.530;2023-04-01T00:42:33;14.50;61.50
22383;DHT22;11359;45.802;13.530;2023-04-01T00:45:26;14.50;61.50
22383;DHT22;11359;45.802;13.530;2023-04-01T00:47:52;14.50;61.50
22383;DHT22;11359;45.802;13.530;2023-04-01T00:50:19;14.50;61.40
22383;DHT22;11359;45.802;13.530;2023-04-01T00:52:47;14.50;61.30
22383;DHT22;11359;45.802;13.530;2023-04-01T00:55:14;14.50;61.20
22383;DHT22;11359;45.802;13.530;2023-04-01T00:57:43;14.50;61.10
22383;DHT22;11359;45.802;13.530;2023-04-01T01:00:11;14.50;61.10
22383;DHT22;11359;45.802;13.530;2023-04-01T01:02:41;14.50;61.00
22383;DHT22;11359;45.802;13.530;2023-04-01T01:05:11;14.50;61.00
22383;DHT22;11359;45.802;13.530;2023-04-01T01:10:29;14.40;60.80
22383;DHT22;11359;45.802;13.530;2023-04-01T01:15:53;14.40;60.80
22383;DHT22;11359;45.802;13.530;2023-04-01T01:18:38;14.30;60.80
22383;DHT22;11359;45.802;13.530;2023-04-01T01:29:40;14.20;60.80
22383;DHT22;11359;45.802;13.530;2023-04-01T01:35:07;14.20;60.80
22383;DHT22;11359;45.802;13.530;2023-04-01T01:37:37;14.10;60.60
22383;DHT22;11359;45.802;13.530;2023-04-01T01:40:07;14.10;60.50
22383;DHT22;11359;45.802;13.530;2023-04-01T01:42:36;14.10;60.40
22383;DHT22;11359;45.802;13.530;2023-04-01T01:45:05;14.00;60.40
22383;DHT22;11359;45.802;13.530;2023-04-01T01:47:34;14.00;60.50
22383;DHT22;11359;45.802;13.530;2023-04-01T01:50:04;14.00;60.50
22383;DHT22;11359;45.802;13.530;2023-04-01T01:52:31;14.00;60.70
22383;DHT22;11359;45.802;13.530;2023-04-01T01:54:58;14.00;60.50
22383;DHT22;11359;45.802;13.530;2023-04-01T01:57:32;13.90;60.40
22383;DHT22;11359;45.802;13.530;2023-04-01T02:00:08;13.90;60.40
22383;DHT22;11359;45.802;13.530;2023-04-01T02:02:44;13.90;61.30
22383;DHT22;11359;45.802;13.530;2023-04-01T02:05:16;13.90;60.70
22383;DHT22;11359;45.802;13.530;2023-04-01T02:07:46;13.90;60.70
22383;DHT22;11359;45.802;13.530;2023-04-01T02:10:14;13.90;60.80
22383;DHT22;11359;45.802;13.530;2023-04-01T02:12:41;13.90;60.80
22383;DHT22;11359;45.802;13.530;2023-04-01T02:15:09;13.80;60.70
22383;DHT22;11359;45.802;13.530;2023-04-01T02:17:41;13.90;60.80
22383;DHT22;11359;45.802;13.530;2023-04-01T02:20:13;13.80;60.70
22383;DHT22;11359;45.802;13.530;2023-04-01T02:22:48;13.80;60.60
22383;DHT22;11359;45.802;13.530;2023-04-01T02:25:15;13.80;60.40
22383;DHT22;11359;45.802;13.530;2023-04-01T02:27:44;13.80;60.40
22383;DHT22;11359;45.802;13.530;2023-04-01T02:30:13;13.80;60.30
22383;DHT22;11359;45.802;13.530;2023-04-01T02:32:40;13.70;60.30
22383;DHT22;11359;45.802;13.530;2023-04-01T02:35:09;13.70;60.30
22383;DHT22;11359;45.802;13.530;2023-04-01T02:37:36;13.60;60.40
22383;DHT22;11359;45.802;13.530;2023-04-01T02:40:07;13.60;60.60
22383;DHT22;11359;45.802;13.530;2023-04-01T02:42:34;13.60;60.60
22383;DHT22;11359;45.802;13.530;2023-04-01T02:45:01;13.60;60.60
22383;DHT22;11359;45.802;13.530;2023-04-01T02:47:27;13.60;60.70
22383;DHT22;11359;45.802;13.530;2023-04-01T02:49:52;13.60;60.70
22383;DHT22;11359;45.802;13.530;2023-04-01T02:52:28;13.60;60.70
22383;DHT22;11359;45.802;13.530;2023-04-01T02:54:54;13.60;60.70
22383;DHT22;11359;45.802;13.530;2023-04-01T02:57:20;13.60;60.70
22383;DHT22;11359;45.802;13.530;2023-04-01T02:59:46;13.60;60.70
22383;DHT22;11359;45.802;13.530;2023-04-01T03:02:12;13.60;60.60
22383;DHT22;11359;45.802;13.530;2023-04-01T03:04:37;13.60;60.70
22383;DHT22;11359;45.802;13.530;2023-04-01T03:07:03;13.60;60.70
22383;DHT22;11359;45.802;13.530;2023-04-01T03:09:29;13.60;60.70
22383;DHT22;11359;45.802;13.530;2023-04-01T03:11:56;13.60;60.70
22383;DHT22;11359;45.802;13.530;2023-04-01T03:14:22;13.60;60.70
22383;DHT22;11359;45.802;13.530;2023-04-01T03:16:47;13.60;60.60
22383;DHT22;11359;45.802;13.530;2023-04-01T03:19:13;13.60;60.60
22383;DHT22;11359;45.802;13.530;2023-04-01T03:21:39;13.60;60.60
22383;DHT22;11359;45.802;13.530;2023-04-01T03:24:05;13.60;60.50
22383;DHT22;11359;45.802;13.530;2023-04-01T03:26:31;13.50;60.40
22383;DHT22;11359;45.802;13.530;2023-04-01T03:28:57;13.50;60.40
22383;DHT22;11359;45.802;13.530;2023-04-01T03:31:23;13.50;60.40
22383;DHT22;11359;45.802;13.530;2023-04-01T03:33:49;13.50;60.40
22383;DHT22;11359;45.802;13.530;2023-04-01T03:36:14;13.50;60.40
22383;DHT22;11359;45.802;13.530;2023-04-01T03:38:42;13.50;60.50
22383;DHT22;11359;45.802;13.530;2023-04-01T03:41:12;13.40;60.50
22383;DHT22;11359;45.802;13.530;2023-04-01T03:43:38;13.40;60.50
22383;DHT22;11359;45.802;13.530;2023-04-01T03:46:04;13.40;60.50
22383;DHT22;11359;45.802;13.530;2023-04-01T03:48:30;13.40;60.40
22383;DHT22;11359;45.802;13.530;2023-04-01T03:50:56;13.40;60.30
22383;DHT22;11359;45.802;13.530;2023-04-01T03:53:22;13.40;60.40
22383;DHT22;11359;45.802;13.530;2023-04-01T03:55:47;13.30;60.30
22383;DHT22;11359;45.802;13.530;2023-04-01T03:58:14;13.30;60.40
22383;DHT22;11359;45.802;13.530;2023-04-01T04:00:39;13.30;60.50
22383;DHT22;11359;45.802;13.530;2023-04-01T04:03:06;13.30;60.50
22383;DHT22;11359;45.802;13.530;2023-04-01T04:05:32;13.30;60.60
22383;DHT22;11359;45.802;13.530;2023-04-01T04:07:58;13.30;60.60
22383;DHT22;11359;45.802;13.530;2023-04-01T04:10:26;13.30;60.50
22383;DHT22;11359;45.802;13.530;2023-04-01T04:12:54;13.30;60.50
22383;DHT22;11359;45.802;13.530;2023-04-01T04:15:20;13.30;60.50
22383;DHT22;11359;45.802;13.530;2023-04-01T04:17:47;13.20;60.40
22383;DHT22;11359;45.802;13.530;2023-04-01T04:20:13;13.20;60.40
22383;DHT22;11359;45.802;13.530;2023-04-01T04:22:38;13.20;60.40
22383;DHT22;11359;45.802;13.530;2023-04-01T04:25:04;13.20;60.40
22383;DHT22;11359;45.802;13.530;2023-04-01T04:27:31;13.20;60.40
22383;DHT22;11359;45.802;13.530;2023-04-01T04:29:56;13.20;60.40
22383;DHT22;11359;45.802;13.530;2023-04-01T04:32:22;13.20;60.50
22383;DHT22;11359;45.802;13.530;2023-04-01T04:34:47;13.20;60.50
22383;DHT22;11359;45.802;13.530;2023-04-01T04:37:13;13.20;60.50
22383;DHT22;11359;45.802;13.530;2023-04-01T04:39:39;13.20;60.50
22383;DHT22;11359;45.802;13.530;2023-04-01T04:42:05;13.10;60.50
22383;DHT22;11359;45.802;13.530;2023-04-01T04:44:31;13.20;60.60
22383;DHT22;11359;45.802;13.530;2023-04-01T04:46:56;13.20;60.60
22383;DHT22;11359;45.802;13.530;2023-04-01T04:49:22;13.20;61.40
22383;DHT22;11359;45.802;13.530;2023-04-01T04:51:48;13.10;60.50
22383;DHT22;11359;45.802;13.530;2023-04-01T04:54:14;13.20;60.70
22383;DHT22;11359;45.802;13.530;2023-04-01T04:56:39;13.20;60.70
22383;DHT22;11359;45.802;13.530;2023-04-01T04:59:05;13.20;60.70
22383;DHT22;11359;45.802;13.530;2023-04-01T05:01:31;13.20;60.70
22383;DHT22;11359;45.802;13.530;2023-04-01T05:03:59;13.20;60.70
22383;DHT22;11359;45.802;13.530;2023-04-01T05:06:24;13.20;60.80
22383;DHT22;11359;45.802;13.530;2023-04-01T05:08:51;13.20;60.80
22383;DHT22;11359;45.802;13.530;2023-04-01T05:11:19;13.30;60.90
22383;DHT22;11359;45.802;13.530;2023-04-01T05:13:46;13.30;60.70
22383;DHT22;11359;45.802;13.530;2023-04-01T05:16:14;13.30;60.70
22383;DHT22;11359;45.802;13.530;2023-04-01T05:18:40;13.30;60.70
22383;DHT22;11359;45.802;13.530;2023-04-01T05:21:08;13.30;60.70
22383;DHT22;11359;45.802;13.530;2023-04-01T05:23:35;13.30;60.60
22383;DHT22;11359;45.802;13.530;2023-04-01T05:26:10;13.30;60.50
22383;DHT22;11359;45.802;13.530;2023-04-01T05:28:36;13.30;60.50
22383;DHT22;11359;45.802;13.530;2023-04-01T05:31:03;13.30;60.50
22383;DHT22;11359;45.802;13.530;2023-04-01T05:33:30;13.30;60.50
22383;DHT22;11359;45.802;13.530;2023-04-01T05:35:57;13.30;60.50
22383;DHT22;11359;45.802;13.530;2023-04-01T05:38:30;13.30;60.50
22383;DHT22;11359;45.802;13.530;2023-04-01T05:41:00;13.30;60.60
22383;DHT22;11359;45.802;13.530;2023-04-01T05:43:26;13.30;60.70
22383;DHT22;11359;45.802;13.530;2023-04-01T05:45:52;13.30;60.70
22383;DHT22;11359;45.802;13.530;2023-04-01T05:48:17;13.40;60.70
22383;DHT22;11359;45.802;13.530;2023-04-01T05:50:43;13.40;60.70
22383;DHT22;11359;45.802;13.530;2023-04-01T05:53:09;13.40;60.50
22383;DHT22;11359;45.802;13.530;2023-04-01T05:55:35;13.40;60.50
22383;DHT22;11359;45.802;13.530;2023-04-01T05:58:01;13.40;60.50
22383;DHT22;11359;45.802;13.530;2023-04-01T06:00:27;13.40;60.40
22383;DHT22;11359;45.802;13.530;2023-04-01T06:02:53;13.40;60.30
22383;DHT22;11359;45.802;13.530;2023-04-01T06:05:24;13.40;60.40
22383;DHT22;11359;45.802;13.530;2023-04-01T06:07:55;13.50;60.50
22383;DHT22;11359;45.802;13.530;2023-04-01T06:11:10;13.50;60.50
22383;DHT22;11359;45.802;13.530;2023-04-01T06:16:21;13.50;60.60
22383;DHT22;11359;45.802;13.530;2023-04-01T06:19:27;13.50;60.60
22383;DHT22;11359;45.802;13.530;2023-04-01T06:22:08;13.50;60.60
22383;DHT22;11359;45.802;13.530;2023-04-01T06:25:10;13.60;60.60
22383;DHT22;11359;45.802;13.530;2023-04-01T06:36:04;13.70;60.70
22383;DHT22;11359;45.802;13.530;2023-04-01T06:41:51;13.70;60.70
22383;DHT22;11359;45.802;13.530;2023-04-01T06:44:16;13.70;60.60
22383;DHT22;11359;45.802;13.530;2023-04-01T06:46:48;13.70;60.70
22383;DHT22;11359;45.802;13.530;2023-04-01T06:52:22;13.80;60.70
22383;DHT22;11359;45.802;13.530;2023-04-01T06:55:23;13.80;60.70
22383;DHT22;11359;45.802;13.530;2023-04-01T06:57:51;13.80;60.70
22383;DHT22;11359;45.802;13.530;2023-04-01T07:02:49;13.90;60.70
22383;DHT22;11359;45.802;13.530;2023-04-01T07:05:21;13.90;60.70
22383;DHT22;11359;45.802;13.530;2023-04-01T07:07:51;13.90;60.60
22383;DHT22;11359;45.802;13.530;2023-04-01T07:10:47;13.90;60.50
22383;DHT22;11359;45.802;13.530;2023-04-01T07:13:25;14.00;60.50
22383;DHT22;11359;45.802;13.530;2023-04-01T07:16:12;14.00;60.40
22383;DHT22;11359;45.802;13.530;2023-04-01T07:18:58;14.00;60.40
22383;DHT22;11359;45.802;13.530;2023-04-01T07:21:29;14.00;60.30
22383;DHT22;11359;45.802;13.530;2023-04-01T07:24:01;14.00;60.30
22383;DHT22;11359;45.802;13.530;2023-04-01T07:26:28;14.10;60.40
22383;DHT22;11359;45.802;13.530;2023-04-01T07:28:54;14.10;60.40
22383;DHT22;11359;45.802;13.530;2023-04-01T07:36:39;14.10;60.40
22383;DHT22;11359;45.802;13.530;2023-04-01T07:47:40;14.30;60.50
22383;DHT22;11359;45.802;13.530;2023-04-01T07:50:22;14.40;60.50
22383;DHT22;11359;45.802;13.530;2023-04-01T08:07:10;14.60;60.40
22383;DHT22;11359;45.802;13.530;2023-04-01T08:10:03;14.60;60.30
22383;DHT22;11359;45.802;13.530;2023-04-01T08:18:33;14.70;60.20
22383;DHT22;11359;45.802;13.530;2023-04-01T08:21:08;14.80;60.20
22383;DHT22;11359;45.802;13.530;2023-04-01T08:23:44;14.80;60.00
22383;DHT22;11359;45.802;13.530;2023-04-01T08:26:42;14.90;60.00
22383;DHT22;11359;45.802;13.530;2023-04-01T08:29:17;14.90;59.90
22383;DHT22;11359;45.802;13.530;2023-04-01T08:31:57;14.90;59.90
22383;DHT22;11359;45.802;13.530;2023-04-01T08:34:30;15.00;59.90
22383;DHT22;11359;45.802;13.530;2023-04-01T08:37:14;15.00;59.80
22383;DHT22;11359;45.802;13.530;2023-04-01T08:39:47;15.00;59.80
22383;DHT22;11359;45.802;13.530;2023-04-01T08:42:49;15.10;59.90
22383;DHT22;11359;45.802;13.530;2023-04-01T08:50:40;15.20;59.90
22383;DHT22;11359;45.802;13.530;2023-04-01T08:56:20;15.20;59.90
22383;DHT22;11359;45.802;13.530;2023-04-01T09:01:56;15.30;59.80
22383;DHT22;11359;45.802;13.530;2023-04-01T09:13:23;15.40;59.80
22383;DHT22;11359;45.802;13.530;2023-04-01T09:23:56;15.50;59.90
22383;DHT22;11359;45.802;13.530;2023-04-01T09:43:16;15.90;59.70
22383;DHT22;11359;45.802;13.530;2023-04-01T09:49:50;16.00;59.60
22383;DHT22;11359;45.802;13.530;2023-04-01T10:13:59;16.20;58.90
22383;DHT22;11359;45.802;13.530;2023-04-01T10:27:38;16.20;58.80
22383;DHT22;11359;45.802;13.530;2023-04-01T10:33:34;16.30;58.70
22383;DHT22;11359;45.802;13.530;2023-04-01T10:50:26;16.40;58.50
22383;DHT22;11359;45.802;13.530;2023-04-01T10:56:34;16.40;58.40
22383;DHT22;11359;45.802;13.530;2023-04-01T11:15:31;16.70;58.20
22383;DHT22;11359;45.802;13.530;2023-04-01T11:26:32;16.80;58.60
22383;DHT22;11359;45.802;13.530;2023-04-01T11:34:43;16.90;57.80
22383;DHT22;11359;45.802;13.530;2023-04-01T11:42:49;17.00;57.70
22383;DHT22;11359;45.802;13.530;2023-04-01T11:53:42;17.10;57.50
22383;DHT22;11359;45.802;13.530;2023-04-01T11:56:38;17.00;57.30
22383;DHT22;11359;45.802;13.530;2023-04-01T11:59:10;17.00;57.20
22383;DHT22;11359;45.802;13.530;2023-04-01T12:01:50;17.10;57.10
22383;DHT22;11359;45.802;13.530;2023-04-01T12:09:52;17.20;56.80
22383;DHT22;11359;45.802;13.530;2023-04-01T12:17:48;17.30;56.60
22383;DHT22;11359;45.802;13.530;2023-04-01T12:23:13;17.30;56.40
22383;DHT22;11359;45.802;13.530;2023-04-01T12:26:28;17.40;56.40
22383;DHT22;11359;45.802;13.530;2023-04-01T12:31:37;17.50;56.40
22383;DHT22;11359;45.802;13.530;2023-04-01T12:40:02;17.60;56.40
22383;DHT22;11359;45.802;13.530;2023-04-01T12:42:52;17.60;56.40
22383;DHT22;11359;45.802;13.530;2023-04-01T12:45:29;17.70;56.30
22383;DHT22;11359;45.802;13.530;2023-04-01T12:54:13;17.80;56.50
22383;DHT22;11359;45.802;13.530;2023-04-01T12:57:09;17.80;56.50
22383;DHT22;11359;45.802;13.530;2023-04-01T13:10:13;18.00;56.50
22383;DHT22;11359;45.802;13.530;2023-04-01T13:27:25;18.20;56.60
22383;DHT22;11359;45.802;13.530;2023-04-01T14:02:24;18.80;56.70
22383;DHT22;11359;45.802;13.530;2023-04-01T14:05:11;18.80;56.70
22383;DHT22;11359;45.802;13.530;2023-04-01T14:15:55;18.90;56.60
22383;DHT22;11359;45.802;13.530;2023-04-01T14:32:24;19.10;56.70
22383;DHT22;11359;45.802;13.530;2023-04-01T14:51:34;19.30;56.30
22383;DHT22;11359;45.802;13.530;2023-04-01T14:56:39;19.30;56.20
22383;DHT22;11359;45.802;13.530;2023-04-01T14:59:10;19.30;56.10
22383;DHT22;11359;45.802;13.530;2023-04-01T15:01:52;19.30;56.10
22383;DHT22;11359;45.802;13.530;2023-04-01T15:10:10;19.40;56.20
22383;DHT22;11359;45.802;13.530;2023-04-01T15:13:19;19.40;56.10
22383;DHT22;11359;45.802;13.530;2023-04-01T15:18:56;19.30;55.90
22383;DHT22;11359;45.802;13.530;2023-04-01T15:27:28;19.30;55.50
22383;DHT22;11359;45.802;13.530;2023-04-01T15:32:45;19.20;55.50
22383;DHT22;11359;45.802;13.530;2023-04-01T15:37:56;19.20;55.90
22383;DHT22;11359;45.802;13.530;2023-04-01T15:40:43;19.30;56.40
22383;DHT22;11359;45.802;13.530;2023-04-01T15:49:43;19.80;57.10
22383;DHT22;11359;45.802;13.530;2023-04-01T15:54:57;20.20;56.00
22383;DHT22;11359;45.802;13.530;2023-04-01T16:06:12;21.10;56.30
22383;DHT22;11359;45.802;13.530;2023-04-01T16:25:44;22.60;52.80
22383;DHT22;11359;45.802;13.530;2023-04-01T16:31:37;22.50;51.80
22383;DHT22;11359;45.802;13.530;2023-04-01T16:34:08;22.30;51.30
22383;DHT22;11359;45.802;13.530;2023-04-01T16:44:29;21.40;50.90
22383;DHT22;11359;45.802;13.530;2023-04-01T16:47:05;21.20;51.00
22383;DHT22;11359;45.802;13.530;2023-04-01T16:50:22;21.00;51.10
22383;DHT22;11359;45.802;13.530;2023-04-01T16:59:02;20.40;51.50
22383;DHT22;11359;45.802;13.530;2023-04-01T17:01:30;20.20;51.50
22383;DHT22;11359;45.802;13.530;2023-04-01T17:04:21;20.00;51.70
22383;DHT22;11359;45.802;13.530;2023-04-01T17:07:06;19.90;51.80
22383;DHT22;11359;45.802;13.530;2023-04-01T17:21:16;19.30;52.10
22383;DHT22;11359;45.802;13.530;2023-04-01T17:24:01;19.30;52.20
22383;DHT22;11359;45.802;13.530;2023-04-01T17:26:46;19.20;52.30
22383;DHT22;11359;45.802;13.530;2023-04-01T17:32:13;19.00;52.30
22383;DHT22;11359;45.802;13.530;2023-04-01T17:38:05;19.00;52.60
22383;DHT22;11359;45.802;13.530;2023-04-01T17:40:20;18.90;52.50
22383;DHT22;11359;45.802;13.530;2023-04-01T17:45:54;18.80;52.50
22383;DHT22;11359;45.802;13.530;2023-04-01T17:48:49;18.70;52.50
22383;DHT22;11359;45.802;13.530;2023-04-01T17:51:14;18.70;52.60
22383;DHT22;11359;45.802;13.530;2023-04-01T17:54:44;18.70;52.70
22383;DHT22;11359;45.802;13.530;2023-04-01T18:00:17;18.60;52.80
22383;DHT22;11359;45.802;13.530;2023-04-01T18:06:00;18.50;52.80
22383;DHT22;11359;45.802;13.530;2023-04-01T18:16:54;18.30;53.00
22383;DHT22;11359;45.802;13.530;2023-04-01T18:27:42;18.20;53.20
22383;DHT22;11359;45.802;13.530;2023-04-01T18:30:27;18.10;53.20
22383;DHT22;11359;45.802;13.530;2023-04-01T18:33:06;18.10;53.20
22383;DHT22;11359;45.802;13.530;2023-04-01T18:35:54;18.10;53.30
22383;DHT22;11359;45.802;13.530;2023-04-01T18:43:35;18.00;53.40
22383;DHT22;11359;45.802;13.530;2023-04-01T18:46:13;17.90;54.00
22383;DHT22;11359;45.802;13.530;2023-04-01T18:48:52;17.90;53.40
22383;DHT22;11359;45.802;13.530;2023-04-01T18:51:54;17.90;53.50
22383;DHT22;11359;45.802;13.530;2023-04-01T19:00:25;17.80;53.60
22383;DHT22;11359;45.802;13.530;2023-04-01T19:03:16;17.70;53.60
22383;DHT22;11359;45.802;13.530;2023-04-01T19:05:47;17.70;54.40
22383;DHT22;11359;45.802;13.530;2023-04-01T19:21:42;17.50;54.00
22383;DHT22;11359;45.802;13.530;2023-04-01T19:27:18;17.40;54.10
22383;DHT22;11359;45.802;13.530;2023-04-01T19:41:19;17.30;54.30
22383;DHT22;11359;45.802;13.530;2023-04-01T19:46:49;17.30;54.30
22383;DHT22;11359;45.802;13.530;2023-04-01T19:51:56;17.20;54.40
22383;DHT22;11359;45.802;13.530;2023-04-01T19:55:02;17.20;54.50
22383;DHT22;11359;45.802;13.530;2023-04-01T20:00:26;17.10;54.50
22383;DHT22;11359;45.802;13.530;2023-04-01T20:05:59;17.00;54.60
22383;DHT22;11359;45.802;13.530;2023-04-01T20:08:56;17.00;54.70
22383;DHT22;11359;45.802;13.530;2023-04-01T20:11:58;17.00;54.80
22383;DHT22;11359;45.802;13.530;2023-04-01T20:14:49;16.90;54.80
22383;DHT22;11359;45.802;13.530;2023-04-01T20:25:32;16.80;54.90
22383;DHT22;11359;45.802;13.530;2023-04-01T20:44:12;16.70;55.20
22383;DHT22;11359;45.802;13.530;2023-04-01T21:00:03;16.60;55.40
22383;DHT22;11359;45.802;13.530;2023-04-01T21:08:18;16.50;55.40
22383;DHT22;11359;45.802;13.530;2023-04-01T21:11:08;16.50;55.40
22383;DHT22;11359;45.802;13.530;2023-04-01T21:13:45;16.50;55.40
22383;DHT22;11359;45.802;13.530;2023-04-01T21:39:15;16.30;55.70
22383;DHT22;11359;45.802;13.530;2023-04-01T21:41:39;16.20;55.70
22383;DHT22;11359;45.802;13.530;2023-04-01T21:44:25;16.20;55.80
22383;DHT22;11359;45.802;13.530;2023-04-01T22:06:00;16.10;55.90
22383;DHT22;11359;45.802;13.530;2023-04-01T22:11:18;16.10;56.00
22383;DHT22;11359;45.802;13.530;2023-04-01T22:13:54;16.00;55.90
22383;DHT22;11359;45.802;13.530;2023-04-01T22:16:41;16.00;56.00
22383;DHT22;11359;45.802;13.530;2023-04-01T22:19:20;16.00;56.00
22383;DHT22;11359;45.802;13.530;2023-04-01T22:24:54;15.90;55.90
22383;DHT22;11359;45.802;13.530;2023-04-01T22:32:41;15.80;56.00
22383;DHT22;11359;45.802;13.530;2023-04-01T22:43:42;15.80;56.30
22383;DHT22;11359;45.802;13.530;2023-04-01T22:49:40;15.70;56.20
22383;DHT22;11359;45.802;13.530;2023-04-01T22:53:04;15.70;56.30
22383;DHT22;11359;45.802;13.530;2023-04-01T22:55:25;15.70;56.40
22383;DHT22;11359;45.802;13.530;2023-04-01T22:58:05;15.70;56.50
22383;DHT22;11359;45.802;13.530;2023-04-01T23:00:43;15.70;56.50
22383;DHT22;11359;45.802;13.530;2023-04-01T23:03:25;15.70;56.50
22383;DHT22;11359;45.802;13.530;2023-04-01T23:05:55;15.70;56.50
22383;DHT22;11359;45.802;13.530;2023-04-01T23:11:16;15.60;56.30
22383;DHT22;11359;45.802;13.530;2023-04-01T23:13:47;15.60;56.30
22383;DHT22;11359;45.802;13.530;2023-04-01T23:16:23;15.60;56.40
22383;DHT22;11359;45.802;13.530;2023-04-01T23:18:59;15.60;56.50
22383;DHT22;11359;45.802;13.530;2023-04-01T23:21:54;15.50;56.50
22383;DHT22;11359;45.802;13.530;2023-04-01T23:24:33;15.50;56.40
22383;DHT22;11359;45.802;13.530;2023-04-01T23:29:51;15.50;56.90
22383;DHT22;11359;45.802;13.530;2023-04-01T23:32:23;15.50;56.30
22383;DHT22;11359;45.802;13.530;2023-04-01T23:34:54;15.50;56.40
22383;DHT22;11359;45.802;13.530;2023-04-01T23:37:21;15.40;56.30
22383;DHT22;11359;45.802;13.530;2023-04-01T23:39:55;15.40;56.20
22383;DHT22;11359;45.802;13.530;2023-04-01T23:42:23;15.40;56.20
22383;DHT22;11359;45.802;13.530;2023-04-01T23:44:55;15.40;56.20
22383;DHT22;11359;45.802;13.530;2023-04-01T23:47:24;15.40;56.20
22383;DHT22;11359;45.802;13.530;2023-04-01T23:49:57;15.40;56.30
22383;DHT22;11359;45.802;13.530;2023-04-01T23:52:34;15.40;56.30
22383;DHT22;11359;45.802;13.530;2023-04-01T23:55:15;15.40;56.30
22383;DHT22;11359;45.802;13.530;2023-04-01T23:58:46;15.40;56.30
